sensor_id;sensor_type;location;lat;lon;timestamp;P1;durP1;ratioP1;P2;durP2;ratioP2
3571;SDS011;7958;53.024;12.970;2023-02-01T00:00:26;6.13;;;2.53;;
3571;SDS011;7958;53.024;12.970;2023-02-01T00:02:53;12.43;;;2.37;;
3571;SDS011;7958;53.024;12.970;2023-02-01T00:05:19;7.33;;;2.17;;
3571;SDS011;7958;53.024;12.970;2023-02-01T00:07:46;10.73;;;2.80;;
3571;SDS011;7958;53.024;12.970;2023-02-01T00:10:13;5.40;;;1.97;;
3571;SDS011;7958;53.024;12.970;2023-02-01T00:12:39;8.17;;;2.83;;
3571;SDS011;7958;53.024;12.970;2023-02-01T00:15:07;13.37;;;2.47;;
3571;SDS011;7958;53.024;12.970;2023-02-01T00:17:35;10.50;;;2.50;;
3571;SDS011;7958;53.024;12.970;2023-02-01T00:20:04;9.70;;;2.90;;
3571;SDS011;7958;53.024;12.970;2023-02-01T00:22:31;9.50;;;2.93;;
3571;SDS011;7958;53.024;12.970;2023-02-01T00:24:58;8.20;;;2.43;;
3571;SDS011;7958;53.024;12.970;2023-02-01T00:27:24;16.30;;;3.43;;
3571;SDS011;7958;53.024;12.970;2023-02-01T00:29:50;10.63;;;2.60;;
3571;SDS011;7958;53.024;12.970;2023-02-01T00:32:17;12.43;;;2.00;;
3571;SDS011;7958;53.024;12.970;2023-02-01T00:34:44;15.23;;;2.50;;
3571;SDS011;7958;53.024;12.970;2023-02-01T00:37:11;7.40;;;2.63;;
3571;SDS011;7958;53.024;12.970;2023-02-01T00:39:37;11.30;;;2.67;;
3571;SDS011;7958;53.024;12.970;2023-02-01T00:42:06;8.80;;;2.33;;
3571;SDS011;7958;53.024;12.970;2023-02-01T00:44:33;9.17;;;1.93;;
3571;SDS011;7958;53.024;12.970;2023-02-01T00:47:00;2.47;;;1.50;;
3571;SDS011;7958;53.024;12.970;2023-02-01T00:49:27;10.00;;;2.00;;
3571;SDS011;7958;53.024;12.970;2023-02-01T00:51:55;9.43;;;2.27;;
3571;SDS011;7958;53.024;12.970;2023-02-01T00:54:21;7.17;;;1.90;;
3571;SDS011;7958;53.024;12.970;2023-02-01T00:56:48;11.63;;;3.17;;
3571;SDS011;7958;53.024;12.970;2023-02-01T00:59:15;8.93;;;2.47;;
3571;SDS011;7958;53.024;12.970;2023-02-01T01:01:41;12.30;;;2.20;;
3571;SDS011;7958;53.024;12.970;2023-02-01T01:04:07;14.10;;;2.87;;
3571;SDS011;7958;53.024;12.970;2023-02-01T01:06:37;10.67;;;4.10;;
3571;SDS011;7958;53.024;12.970;2023-02-01T01:09:05;15.77;;;3.00;;
3571;SDS011;7958;53.024;12.970;2023-02-01T01:11:33;15.20;;;3.50;;
3571;SDS011;7958;53.024;12.970;2023-02-01T01:14:00;9.90;;;2.80;;
3571;SDS011;7958;53.024;12.970;2023-02-01T01:16:27;14.33;;;2.87;;
3571;SDS011;7958;53.024;12.970;2023-02-01T01:18:55;11.33;;;2.27;;
3571;SDS011;7958;53.024;12.970;2023-02-01T01:21:23;12.10;;;2.20;;
3571;SDS011;7958;53.024;12.970;2023-02-01T01:23:50;7.50;;;1.90;;
3571;SDS011;7958;53.024;12.970;2023-02-01T01:26:18;15.77;;;2.73;;
3571;SDS011;7958;53.024;12.970;2023-02-01T01:28:45;3.23;;;1.80;;
3571;SDS011;7958;53.024;12.970;2023-02-01T01:31:13;6.43;;;1.93;;
3571;SDS011;7958;53.024;12.970;2023-02-01T01:33:41;9.83;;;2.20;;
3571;SDS011;7958;53.024;12.970;2023-02-01T01:36:09;4.60;;;1.43;;
3571;SDS011;7958;53.024;12.970;2023-02-01T01:38:36;11.27;;;1.97;;
3571;SDS011;7958;53.024;12.970;2023-02-01T01:41:02;6.50;;;1.60;;
3571;SDS011;7958;53.024;12.970;2023-02-01T01:46:23;6.50;;;1.50;;
3571;SDS011;7958;53.024;12.970;2023-02-01T01:48:54;6.80;;;2.13;;
3571;SDS011;7958;53.024;12.970;2023-02-01T01:51:24;6.97;;;1.50;;
3571;SDS011;7958;53.024;12.970;2023-02-01T01:53:54;6.70;;;1.67;;
3571;SDS011;7958;53.024;12.970;2023-02-01T01:56:23;11.70;;;2.00;;
3571;SDS011;7958;53.024;12.970;2023-02-01T01:58:51;2.53;;;1.20;;
3571;SDS011;7958;53.024;12.970;2023-02-01T02:01:18;5.27;;;1.60;;
3571;SDS011;7958;53.024;12.970;2023-02-01T02:03:46;4.50;;;1.70;;
3571;SDS011;7958;53.024;12.970;2023-02-01T02:06:15;8.73;;;1.97;;
3571;SDS011;7958;53.024;12.970;2023-02-01T02:08:50;6.73;;;1.67;;
3571;SDS011;7958;53.024;12.970;2023-02-01T02:11:17;10.83;;;3.00;;
3571;SDS011;7958;53.024;12.970;2023-02-01T02:13:45;7.53;;;1.80;;
3571;SDS011;7958;53.024;12.970;2023-02-01T02:16:18;13.47;;;2.37;;
3571;SDS011;7958;53.024;12.970;2023-02-01T02:18:55;13.70;;;1.97;;
3571;SDS011;7958;53.024;12.970;2023-02-01T02:21:32;13.00;;;2.67;;
3571;SDS011;7958;53.024;12.970;2023-02-01T02:30:02;6.17;;;1.93;;
3571;SDS011;7958;53.024;12.970;2023-02-01T02:32:52;16.67;;;3.10;;
3571;SDS011;7958;53.024;12.970;2023-02-01T02:35:43;9.00;;;2.63;;
3571;SDS011;7958;53.024;12.970;2023-02-01T02:38:13;10.17;;;2.60;;
3571;SDS011;7958;53.024;12.970;2023-02-01T02:40:46;10.20;;;2.40;;
3571;SDS011;7958;53.024;12.970;2023-02-01T02:43:16;14.47;;;2.87;;
3571;SDS011;7958;53.024;12.970;2023-02-01T02:46:04;7.93;;;2.77;;
3571;SDS011;7958;53.024;12.970;2023-02-01T02:49:09;10.13;;;2.33;;
3571;SDS011;7958;53.024;12.970;2023-02-01T02:51:42;7.73;;;2.80;;
3571;SDS011;7958;53.024;12.970;2023-02-01T02:54:29;8.03;;;2.27;;
3571;SDS011;7958;53.024;12.970;2023-02-01T02:57:13;8.23;;;2.60;;
3571;SDS011;7958;53.024;12.970;2023-02-01T03:00:00;10.03;;;2.40;;
3571;SDS011;7958;53.024;12.970;2023-02-01T03:02:46;10.57;;;3.10;;
3571;SDS011;7958;53.024;12.970;2023-02-01T03:05:33;12.23;;;2.90;;
3571;SDS011;7958;53.024;12.970;2023-02-01T03:08:03;9.60;;;2.53;;
3571;SDS011;7958;53.024;12.970;2023-02-01T03:10:33;14.90;;;2.60;;
3571;SDS011;7958;53.024;12.970;2023-02-01T03:13:04;13.30;;;2.70;;
3571;SDS011;7958;53.024;12.970;2023-02-01T03:15:32;7.43;;;2.20;;
3571;SDS011;7958;53.024;12.970;2023-02-01T03:18:01;10.80;;;2.53;;
3571;SDS011;7958;53.024;12.970;2023-02-01T03:20:29;7.53;;;2.60;;
3571;SDS011;7958;53.024;12.970;2023-02-01T03:22:56;15.50;;;3.03;;
3571;SDS011;7958;53.024;12.970;2023-02-01T03:25:29;13.17;;;2.57;;
3571;SDS011;7958;53.024;12.970;2023-02-01T03:27:57;17.73;;;2.27;;
3571;SDS011;7958;53.024;12.970;2023-02-01T03:30:28;9.80;;;2.40;;
3571;SDS011;7958;53.024;12.970;2023-02-01T03:32:58;14.77;;;2.80;;
3571;SDS011;7958;53.024;12.970;2023-02-01T03:35:28;14.67;;;3.10;;
3571;SDS011;7958;53.024;12.970;2023-02-01T03:38:01;11.03;;;2.87;;
3571;SDS011;7958;53.024;12.970;2023-02-01T03:40:30;8.57;;;2.87;;
3571;SDS011;7958;53.024;12.970;2023-02-01T03:42:59;11.90;;;4.10;;
3571;SDS011;7958;53.024;12.970;2023-02-01T03:45:27;15.27;;;3.27;;
3571;SDS011;7958;53.024;12.970;2023-02-01T03:47:56;15.27;;;3.10;;
3571;SDS011;7958;53.024;12.970;2023-02-01T03:50:26;21.87;;;3.90;;
3571;SDS011;7958;53.024;12.970;2023-02-01T03:52:54;12.13;;;3.23;;
3571;SDS011;7958;53.024;12.970;2023-02-01T03:55:23;11.27;;;3.17;;
3571;SDS011;7958;53.024;12.970;2023-02-01T03:57:55;13.20;;;2.53;;
3571;SDS011;7958;53.024;12.970;2023-02-01T04:00:25;11.47;;;3.00;;
3571;SDS011;7958;53.024;12.970;2023-02-01T04:02:52;15.00;;;2.43;;
3571;SDS011;7958;53.024;12.970;2023-02-01T04:05:19;10.83;;;2.57;;
3571;SDS011;7958;53.024;12.970;2023-02-01T04:07:46;25.13;;;3.10;;
3571;SDS011;7958;53.024;12.970;2023-02-01T04:10:12;10.23;;;2.70;;
3571;SDS011;7958;53.024;12.970;2023-02-01T04:12:39;13.03;;;3.00;;
3571;SDS011;7958;53.024;12.970;2023-02-01T04:15:08;4.60;;;2.70;;
3571;SDS011;7958;53.024;12.970;2023-02-01T04:17:35;9.97;;;2.90;;
3571;SDS011;7958;53.024;12.970;2023-02-01T04:20:01;11.00;;;2.90;;
3571;SDS011;7958;53.024;12.970;2023-02-01T04:22:29;15.03;;;3.00;;
3571;SDS011;7958;53.024;12.970;2023-02-01T04:24:56;12.57;;;2.53;;
3571;SDS011;7958;53.024;12.970;2023-02-01T04:27:22;11.83;;;3.10;;
3571;SDS011;7958;53.024;12.970;2023-02-01T04:29:49;22.07;;;3.10;;
3571;SDS011;7958;53.024;12.970;2023-02-01T04:32:17;14.43;;;3.40;;
3571;SDS011;7958;53.024;12.970;2023-02-01T04:34:44;23.13;;;3.87;;
3571;SDS011;7958;53.024;12.970;2023-02-01T04:37:11;10.97;;;2.70;;
3571;SDS011;7958;53.024;12.970;2023-02-01T04:39:37;14.53;;;3.27;;
3571;SDS011;7958;53.024;12.970;2023-02-01T04:42:04;14.40;;;2.83;;
3571;SDS011;7958;53.024;12.970;2023-02-01T04:44:31;10.47;;;2.53;;
3571;SDS011;7958;53.024;12.970;2023-02-01T04:46:57;14.73;;;3.17;;
3571;SDS011;7958;53.024;12.970;2023-02-01T04:49:25;13.30;;;2.50;;
3571;SDS011;7958;53.024;12.970;2023-02-01T04:51:52;25.67;;;3.93;;
3571;SDS011;7958;53.024;12.970;2023-02-01T04:54:20;21.10;;;3.40;;
3571;SDS011;7958;53.024;12.970;2023-02-01T04:56:46;16.60;;;3.20;;
3571;SDS011;7958;53.024;12.970;2023-02-01T04:59:12;13.30;;;2.87;;
3571;SDS011;7958;53.024;12.970;2023-02-01T05:01:39;19.17;;;3.43;;
3571;SDS011;7958;53.024;12.970;2023-02-01T05:04:05;17.67;;;3.20;;
3571;SDS011;7958;53.024;12.970;2023-02-01T05:06:34;15.40;;;3.17;;
3571;SDS011;7958;53.024;12.970;2023-02-01T05:09:00;20.93;;;3.60;;
3571;SDS011;7958;53.024;12.970;2023-02-01T05:11:26;18.43;;;5.10;;
3571;SDS011;7958;53.024;12.970;2023-02-01T05:14:11;14.37;;;3.80;;
3571;SDS011;7958;53.024;12.970;2023-02-01T05:16:37;20.03;;;4.80;;
3571;SDS011;7958;53.024;12.970;2023-02-01T05:19:04;21.20;;;6.07;;
3571;SDS011;7958;53.024;12.970;2023-02-01T05:21:30;12.13;;;3.30;;
3571;SDS011;7958;53.024;12.970;2023-02-01T05:23:58;17.23;;;3.30;;
3571;SDS011;7958;53.024;12.970;2023-02-01T05:26:38;19.60;;;3.63;;
3571;SDS011;7958;53.024;12.970;2023-02-01T05:29:05;11.23;;;2.97;;
3571;SDS011;7958;53.024;12.970;2023-02-01T05:31:32;11.90;;;2.60;;
3571;SDS011;7958;53.024;12.970;2023-02-01T05:33:59;15.57;;;2.73;;
3571;SDS011;7958;53.024;12.970;2023-02-01T05:36:25;27.10;;;5.60;;
3571;SDS011;7958;53.024;12.970;2023-02-01T05:38:52;13.27;;;3.50;;
3571;SDS011;7958;53.024;12.970;2023-02-01T05:41:19;13.93;;;2.80;;
3571;SDS011;7958;53.024;12.970;2023-02-01T05:43:46;13.47;;;3.80;;
3571;SDS011;7958;53.024;12.970;2023-02-01T05:46:12;23.33;;;4.00;;
3571;SDS011;7958;53.024;12.970;2023-02-01T05:48:39;30.20;;;5.10;;
3571;SDS011;7958;53.024;12.970;2023-02-01T05:51:05;14.57;;;3.97;;
3571;SDS011;7958;53.024;12.970;2023-02-01T05:53:32;15.60;;;3.03;;
3571;SDS011;7958;53.024;12.970;2023-02-01T05:55:59;14.83;;;3.50;;
3571;SDS011;7958;53.024;12.970;2023-02-01T05:58:27;5.80;;;2.90;;
3571;SDS011;7958;53.024;12.970;2023-02-01T06:00:54;17.30;;;3.70;;
3571;SDS011;7958;53.024;12.970;2023-02-01T06:03:20;16.57;;;4.40;;
3571;SDS011;7958;53.024;12.970;2023-02-01T06:05:46;14.23;;;3.17;;
3571;SDS011;7958;53.024;12.970;2023-02-01T06:08:13;16.50;;;3.70;;
3571;SDS011;7958;53.024;12.970;2023-02-01T06:10:40;8.80;;;3.00;;
3571;SDS011;7958;53.024;12.970;2023-02-01T06:13:06;19.13;;;3.80;;
3571;SDS011;7958;53.024;12.970;2023-02-01T06:15:34;16.07;;;3.40;;
3571;SDS011;7958;53.024;12.970;2023-02-01T06:18:02;14.13;;;3.10;;
3571;SDS011;7958;53.024;12.970;2023-02-01T06:20:29;9.13;;;3.07;;
3571;SDS011;7958;53.024;12.970;2023-02-01T06:22:55;11.67;;;2.73;;
3571;SDS011;7958;53.024;12.970;2023-02-01T06:25:22;14.40;;;3.43;;
3571;SDS011;7958;53.024;12.970;2023-02-01T06:27:49;8.97;;;2.93;;
3571;SDS011;7958;53.024;12.970;2023-02-01T06:30:15;23.47;;;4.03;;
3571;SDS011;7958;53.024;12.970;2023-02-01T06:32:43;7.00;;;3.03;;
3571;SDS011;7958;53.024;12.970;2023-02-01T06:35:10;7.37;;;3.10;;
3571;SDS011;7958;53.024;12.970;2023-02-01T06:37:41;10.03;;;2.80;;
3571;SDS011;7958;53.024;12.970;2023-02-01T06:40:08;12.13;;;3.93;;
3571;SDS011;7958;53.024;12.970;2023-02-01T06:42:35;16.57;;;3.40;;
3571;SDS011;7958;53.024;12.970;2023-02-01T06:45:02;10.07;;;2.20;;
3571;SDS011;7958;53.024;12.970;2023-02-01T06:47:29;9.17;;;3.20;;
3571;SDS011;7958;53.024;12.970;2023-02-01T06:49:56;8.70;;;2.80;;
3571;SDS011;7958;53.024;12.970;2023-02-01T06:52:23;10.27;;;2.90;;
3571;SDS011;7958;53.024;12.970;2023-02-01T06:54:49;10.13;;;2.70;;
3571;SDS011;7958;53.024;12.970;2023-02-01T06:57:17;12.50;;;2.53;;
3571;SDS011;7958;53.024;12.970;2023-02-01T06:59:44;8.40;;;3.10;;
3571;SDS011;7958;53.024;12.970;2023-02-01T07:02:10;9.37;;;2.63;;
3571;SDS011;7958;53.024;12.970;2023-02-01T07:04:37;7.30;;;3.07;;
3571;SDS011;7958;53.024;12.970;2023-02-01T07:07:05;11.27;;;2.97;;
3571;SDS011;7958;53.024;12.970;2023-02-01T07:09:31;9.50;;;2.70;;
3571;SDS011;7958;53.024;12.970;2023-02-01T07:11:57;8.13;;;2.63;;
3571;SDS011;7958;53.024;12.970;2023-02-01T07:14:24;10.30;;;2.80;;
3571;SDS011;7958;53.024;12.970;2023-02-01T07:16:50;8.17;;;3.17;;
3571;SDS011;7958;53.024;12.970;2023-02-01T07:19:17;16.73;;;3.27;;
3571;SDS011;7958;53.024;12.970;2023-02-01T07:21:43;16.63;;;3.50;;
3571;SDS011;7958;53.024;12.970;2023-02-01T07:24:11;20.93;;;3.20;;
3571;SDS011;7958;53.024;12.970;2023-02-01T07:26:37;8.43;;;2.57;;
3571;SDS011;7958;53.024;12.970;2023-02-01T07:29:03;5.27;;;2.63;;
3571;SDS011;7958;53.024;12.970;2023-02-01T07:31:30;17.70;;;2.80;;
3571;SDS011;7958;53.024;12.970;2023-02-01T07:33:56;7.23;;;2.27;;
3571;SDS011;7958;53.024;12.970;2023-02-01T07:36:23;9.47;;;2.60;;
3571;SDS011;7958;53.024;12.970;2023-02-01T07:38:50;13.50;;;1.90;;
3571;SDS011;7958;53.024;12.970;2023-02-01T07:41:18;11.73;;;2.33;;
3571;SDS011;7958;53.024;12.970;2023-02-01T07:43:47;6.13;;;1.73;;
3571;SDS011;7958;53.024;12.970;2023-02-01T07:46:15;5.70;;;2.00;;
3571;SDS011;7958;53.024;12.970;2023-02-01T07:48:42;5.17;;;2.10;;
3571;SDS011;7958;53.024;12.970;2023-02-01T07:51:09;3.20;;;2.43;;
3571;SDS011;7958;53.024;12.970;2023-02-01T07:53:36;3.80;;;1.80;;
3571;SDS011;7958;53.024;12.970;2023-02-01T07:56:04;5.47;;;1.97;;
3571;SDS011;7958;53.024;12.970;2023-02-01T07:58:35;6.00;;;1.80;;
3571;SDS011;7958;53.024;12.970;2023-02-01T08:01:02;4.97;;;1.83;;
3571;SDS011;7958;53.024;12.970;2023-02-01T08:03:46;3.90;;;1.40;;
3571;SDS011;7958;53.024;12.970;2023-02-01T08:06:13;3.67;;;1.67;;
3571;SDS011;7958;53.024;12.970;2023-02-01T08:08:40;5.20;;;2.00;;
3571;SDS011;7958;53.024;12.970;2023-02-01T08:11:07;5.70;;;2.27;;
3571;SDS011;7958;53.024;12.970;2023-02-01T08:13:33;1.83;;;1.20;;
3571;SDS011;7958;53.024;12.970;2023-02-01T08:16:02;2.23;;;1.23;;
3571;SDS011;7958;53.024;12.970;2023-02-01T08:18:29;1.33;;;0.90;;
3571;SDS011;7958;53.024;12.970;2023-02-01T08:20:56;2.97;;;1.00;;
3571;SDS011;7958;53.024;12.970;2023-02-01T08:23:22;1.47;;;1.37;;
3571;SDS011;7958;53.024;12.970;2023-02-01T08:25:49;1.10;;;1.00;;
3571;SDS011;7958;53.024;12.970;2023-02-01T08:28:16;1.20;;;1.03;;
3571;SDS011;7958;53.024;12.970;2023-02-01T08:30:42;1.37;;;0.97;;
3571;SDS011;7958;53.024;12.970;2023-02-01T08:33:10;4.70;;;1.00;;
3571;SDS011;7958;53.024;12.970;2023-02-01T08:35:38;4.50;;;1.10;;
3571;SDS011;7958;53.024;12.970;2023-02-01T08:38:05;2.13;;;0.90;;
3571;SDS011;7958;53.024;12.970;2023-02-01T08:40:31;2.93;;;1.10;;
3571;SDS011;7958;53.024;12.970;2023-02-01T08:42:58;1.13;;;1.13;;
3571;SDS011;7958;53.024;12.970;2023-02-01T08:45:28;1.60;;;1.00;;
3571;SDS011;7958;53.024;12.970;2023-02-01T08:47:55;2.80;;;1.10;;
3571;SDS011;7958;53.024;12.970;2023-02-01T08:50:25;5.37;;;1.10;;
3571;SDS011;7958;53.024;12.970;2023-02-01T08:52:52;5.17;;;1.33;;
3571;SDS011;7958;53.024;12.970;2023-02-01T08:55:18;5.90;;;1.70;;
3571;SDS011;7958;53.024;12.970;2023-02-01T08:57:45;1.10;;;1.00;;
3571;SDS011;7958;53.024;12.970;2023-02-01T09:00:12;1.47;;;1.00;;
3571;SDS011;7958;53.024;12.970;2023-02-01T09:02:40;0.93;;;0.83;;
3571;SDS011;7958;53.024;12.970;2023-02-01T09:05:07;0.90;;;0.90;;
3571;SDS011;7958;53.024;12.970;2023-02-01T09:07:36;1.37;;;0.90;;
3571;SDS011;7958;53.024;12.970;2023-02-01T09:10:04;2.40;;;1.13;;
3571;SDS011;7958;53.024;12.970;2023-02-01T09:12:31;1.00;;;0.90;;
3571;SDS011;7958;53.024;12.970;2023-02-01T09:14:59;1.97;;;1.57;;
3571;SDS011;7958;53.024;12.970;2023-02-01T09:17:25;1.27;;;1.17;;
3571;SDS011;7958;53.024;12.970;2023-02-01T09:19:52;2.00;;;1.27;;
3571;SDS011;7958;53.024;12.970;2023-02-01T09:22:18;1.10;;;1.00;;
3571;SDS011;7958;53.024;12.970;2023-02-01T09:24:47;1.33;;;1.03;;
3571;SDS011;7958;53.024;12.970;2023-02-01T09:27:13;1.00;;;0.97;;
3571;SDS011;7958;53.024;12.970;2023-02-01T09:29:40;1.00;;;1.00;;
3571;SDS011;7958;53.024;12.970;2023-02-01T09:32:06;1.40;;;1.00;;
3571;SDS011;7958;53.024;12.970;2023-02-01T09:34:32;1.63;;;1.07;;
3571;SDS011;7958;53.024;12.970;2023-02-01T09:36:59;3.90;;;1.20;;
3571;SDS011;7958;53.024;12.970;2023-02-01T09:39:26;5.00;;;1.10;;
3571;SDS011;7958;53.024;12.970;2023-02-01T09:41:58;1.23;;;0.93;;
3571;SDS011;7958;53.024;12.970;2023-02-01T09:44:32;2.00;;;1.20;;
3571;SDS011;7958;53.024;12.970;2023-02-01T09:47:10;1.97;;;1.40;;
3571;SDS011;7958;53.024;12.970;2023-02-01T09:49:39;4.30;;;1.43;;
3571;SDS011;7958;53.024;12.970;2023-02-01T09:52:12;5.80;;;1.17;;
3571;SDS011;7958;53.024;12.970;2023-02-01T09:54:40;3.33;;;1.30;;
3571;SDS011;7958;53.024;12.970;2023-02-01T09:57:12;2.57;;;1.20;;
3571;SDS011;7958;53.024;12.970;2023-02-01T09:59:42;1.67;;;1.23;;
3571;SDS011;7958;53.024;12.970;2023-02-01T10:02:11;2.50;;;1.30;;
3571;SDS011;7958;53.024;12.970;2023-02-01T10:04:38;1.17;;;1.07;;
3571;SDS011;7958;53.024;12.970;2023-02-01T10:07:13;3.27;;;1.13;;
3571;SDS011;7958;53.024;12.970;2023-02-01T10:09:55;8.50;;;2.10;;
3571;SDS011;7958;53.024;12.970;2023-02-01T10:12:31;2.50;;;0.97;;
3571;SDS011;7958;53.024;12.970;2023-02-01T10:15:24;3.07;;;1.47;;
3571;SDS011;7958;53.024;12.970;2023-02-01T10:17:59;4.97;;;1.40;;
3571;SDS011;7958;53.024;12.970;2023-02-01T10:20:35;2.57;;;1.20;;
3571;SDS011;7958;53.024;12.970;2023-02-01T10:23:08;3.20;;;1.30;;
3571;SDS011;7958;53.024;12.970;2023-02-01T10:25:41;3.13;;;1.47;;
3571;SDS011;7958;53.024;12.970;2023-02-01T10:28:14;7.43;;;1.60;;
3571;SDS011;7958;53.024;12.970;2023-02-01T10:30:41;3.40;;;1.20;;
3571;SDS011;7958;53.024;12.970;2023-02-01T10:33:14;14.60;;;2.17;;
3571;SDS011;7958;53.024;12.970;2023-02-01T10:35:42;9.73;;;1.70;;
3571;SDS011;7958;53.024;12.970;2023-02-01T10:38:20;6.87;;;1.83;;
3571;SDS011;7958;53.024;12.970;2023-02-01T10:40:51;4.53;;;1.80;;
3571;SDS011;7958;53.024;12.970;2023-02-01T10:43:28;2.50;;;2.23;;
3571;SDS011;7958;53.024;12.970;2023-02-01T10:45:54;9.17;;;1.60;;
3571;SDS011;7958;53.024;12.970;2023-02-01T10:48:24;8.23;;;2.50;;
3571;SDS011;7958;53.024;12.970;2023-02-01T10:50:51;9.20;;;2.97;;
3571;SDS011;7958;53.024;12.970;2023-02-01T10:53:21;11.53;;;4.27;;
3571;SDS011;7958;53.024;12.970;2023-02-01T10:55:52;4.83;;;1.40;;
3571;SDS011;7958;53.024;12.970;2023-02-01T10:58:26;11.17;;;1.77;;
3571;SDS011;7958;53.024;12.970;2023-02-01T11:01:10;4.60;;;2.17;;
3571;SDS011;7958;53.024;12.970;2023-02-01T11:03:43;2.50;;;1.47;;
3571;SDS011;7958;53.024;12.970;2023-02-01T11:06:13;1.93;;;1.40;;
3571;SDS011;7958;53.024;12.970;2023-02-01T11:08:46;6.83;;;1.90;;
3571;SDS011;7958;53.024;12.970;2023-02-01T11:11:14;10.43;;;4.10;;
3571;SDS011;7958;53.024;12.970;2023-02-01T11:13:41;8.40;;;2.80;;
3571;SDS011;7958;53.024;12.970;2023-02-01T11:16:11;10.43;;;2.70;;
3571;SDS011;7958;53.024;12.970;2023-02-01T11:18:40;6.50;;;2.40;;
3571;SDS011;7958;53.024;12.970;2023-02-01T11:21:08;6.93;;;1.90;;
3571;SDS011;7958;53.024;12.970;2023-02-01T11:23:39;7.03;;;1.70;;
3571;SDS011;7958;53.024;12.970;2023-02-01T11:26:09;10.37;;;1.90;;
3571;SDS011;7958;53.024;12.970;2023-02-01T11:28:38;4.17;;;1.50;;
3571;SDS011;7958;53.024;12.970;2023-02-01T11:31:07;4.93;;;1.70;;
3571;SDS011;7958;53.024;12.970;2023-02-01T11:33:38;11.83;;;2.47;;
3571;SDS011;7958;53.024;12.970;2023-02-01T11:36:06;5.40;;;2.47;;
3571;SDS011;7958;53.024;12.970;2023-02-01T11:38:33;6.40;;;3.03;;
3571;SDS011;7958;53.024;12.970;2023-02-01T11:41:11;9.33;;;2.50;;
3571;SDS011;7958;53.024;12.970;2023-02-01T11:43:49;7.23;;;2.30;;
3571;SDS011;7958;53.024;12.970;2023-02-01T11:46:22;10.30;;;3.80;;
3571;SDS011;7958;53.024;12.970;2023-02-01T11:48:53;12.23;;;3.40;;
3571;SDS011;7958;53.024;12.970;2023-02-01T11:51:24;8.80;;;3.43;;
3571;SDS011;7958;53.024;12.970;2023-02-01T11:54:02;2.70;;;2.03;;
3571;SDS011;7958;53.024;12.970;2023-02-01T11:56:36;4.03;;;1.10;;
3571;SDS011;7958;53.024;12.970;2023-02-01T11:59:10;5.37;;;2.57;;
3571;SDS011;7958;53.024;12.970;2023-02-01T12:01:47;5.00;;;1.50;;
3571;SDS011;7958;53.024;12.970;2023-02-01T12:04:44;1.97;;;1.30;;
3571;SDS011;7958;53.024;12.970;2023-02-01T12:07:33;4.60;;;1.30;;
3571;SDS011;7958;53.024;12.970;2023-02-01T12:10:12;2.10;;;1.10;;
3571;SDS011;7958;53.024;12.970;2023-02-01T12:12:49;1.37;;;1.00;;
3571;SDS011;7958;53.024;12.970;2023-02-01T12:15:25;2.47;;;1.10;;
3571;SDS011;7958;53.024;12.970;2023-02-01T12:18:01;2.50;;;1.37;;
3571;SDS011;7958;53.024;12.970;2023-02-01T12:23:44;4.27;;;1.20;;
3571;SDS011;7958;53.024;12.970;2023-02-01T12:29:17;6.80;;;1.30;;
3571;SDS011;7958;53.024;12.970;2023-02-01T12:32:09;2.50;;;1.00;;
3571;SDS011;7958;53.024;12.970;2023-02-01T12:37:49;2.40;;;1.23;;
3571;SDS011;7958;53.024;12.970;2023-02-01T12:40:26;4.43;;;1.50;;
3571;SDS011;7958;53.024;12.970;2023-02-01T12:42:59;5.23;;;1.57;;
3571;SDS011;7958;53.024;12.970;2023-02-01T12:45:30;2.80;;;1.43;;
3571;SDS011;7958;53.024;12.970;2023-02-01T12:47:59;1.67;;;1.03;;
3571;SDS011;7958;53.024;12.970;2023-02-01T12:50:40;10.90;;;3.83;;
3571;SDS011;7958;53.024;12.970;2023-02-01T12:53:12;2.83;;;1.20;;
3571;SDS011;7958;53.024;12.970;2023-02-01T12:55:47;1.00;;;1.00;;
3571;SDS011;7958;53.024;12.970;2023-02-01T12:58:17;2.20;;;1.10;;
3571;SDS011;7958;53.024;12.970;2023-02-01T13:00:49;2.40;;;1.10;;
3571;SDS011;7958;53.024;12.970;2023-02-01T13:03:20;3.27;;;1.80;;
3571;SDS011;7958;53.024;12.970;2023-02-01T13:05:54;4.90;;;1.50;;
3571;SDS011;7958;53.024;12.970;2023-02-01T13:08:23;4.03;;;1.47;;
3571;SDS011;7958;53.024;12.970;2023-02-01T13:10:53;2.40;;;1.03;;
3571;SDS011;7958;53.024;12.970;2023-02-01T13:13:25;4.80;;;1.43;;
3571;SDS011;7958;53.024;12.970;2023-02-01T13:15:57;3.90;;;1.70;;
3571;SDS011;7958;53.024;12.970;2023-02-01T13:18:32;3.80;;;1.90;;
3571;SDS011;7958;53.024;12.970;2023-02-01T13:21:02;8.50;;;1.70;;
3571;SDS011;7958;53.024;12.970;2023-02-01T13:23:31;4.80;;;1.27;;
3571;SDS011;7958;53.024;12.970;2023-02-01T13:26:01;3.03;;;1.43;;
3571;SDS011;7958;53.024;12.970;2023-02-01T13:28:28;4.60;;;1.40;;
3571;SDS011;7958;53.024;12.970;2023-02-01T13:33:51;7.70;;;2.70;;
3571;SDS011;7958;53.024;12.970;2023-02-01T13:36:37;6.30;;;2.17;;
3571;SDS011;7958;53.024;12.970;2023-02-01T13:39:20;7.97;;;2.47;;
3571;SDS011;7958;53.024;12.970;2023-02-01T13:42:05;8.43;;;1.90;;
3571;SDS011;7958;53.024;12.970;2023-02-01T13:44:41;9.33;;;1.93;;
3571;SDS011;7958;53.024;12.970;2023-02-01T13:47:12;14.60;;;2.70;;
3571;SDS011;7958;53.024;12.970;2023-02-01T13:49:44;8.53;;;2.60;;
3571;SDS011;7958;53.024;12.970;2023-02-01T13:52:22;11.67;;;2.50;;
3571;SDS011;7958;53.024;12.970;2023-02-01T13:55:00;10.33;;;2.30;;
3571;SDS011;7958;53.024;12.970;2023-02-01T13:57:34;8.00;;;3.07;;
3571;SDS011;7958;53.024;12.970;2023-02-01T14:00:07;4.03;;;1.93;;
3571;SDS011;7958;53.024;12.970;2023-02-01T14:02:36;8.40;;;2.30;;
3571;SDS011;7958;53.024;12.970;2023-02-01T14:08:41;10.37;;;2.10;;
3571;SDS011;7958;53.024;12.970;2023-02-01T14:23:23;5.40;;;1.90;;
3571;SDS011;7958;53.024;12.970;2023-02-01T14:28:43;8.87;;;1.80;;
3571;SDS011;7958;53.024;12.970;2023-02-01T14:31:16;3.83;;;1.73;;
3571;SDS011;7958;53.024;12.970;2023-02-01T14:33:48;7.43;;;2.03;;
3571;SDS011;7958;53.024;12.970;2023-02-01T14:36:15;4.07;;;1.80;;
3571;SDS011;7958;53.024;12.970;2023-02-01T14:38:48;10.17;;;2.20;;
3571;SDS011;7958;53.024;12.970;2023-02-01T14:41:23;5.60;;;1.70;;
3571;SDS011;7958;53.024;12.970;2023-02-01T14:50:18;3.50;;;1.60;;
3571;SDS011;7958;53.024;12.970;2023-02-01T14:52:58;4.10;;;1.63;;
3571;SDS011;7958;53.024;12.970;2023-02-01T14:55:35;5.10;;;1.17;;
3571;SDS011;7958;53.024;12.970;2023-02-01T14:58:05;7.70;;;1.37;;
3571;SDS011;7958;53.024;12.970;2023-02-01T15:00:32;5.47;;;1.70;;
3571;SDS011;7958;53.024;12.970;2023-02-01T15:03:15;5.30;;;1.50;;
3571;SDS011;7958;53.024;12.970;2023-02-01T15:05:54;2.60;;;1.50;;
3571;SDS011;7958;53.024;12.970;2023-02-01T15:08:22;3.27;;;1.70;;
3571;SDS011;7958;53.024;12.970;2023-02-01T15:10:52;5.73;;;1.97;;
3571;SDS011;7958;53.024;12.970;2023-02-01T15:13:20;4.73;;;1.40;;
3571;SDS011;7958;53.024;12.970;2023-02-01T15:18:36;28.50;;;19.23;;
3571;SDS011;7958;53.024;12.970;2023-02-01T15:21:03;10.20;;;8.80;;
3571;SDS011;7958;53.024;12.970;2023-02-01T15:23:31;5.50;;;3.67;;
3571;SDS011;7958;53.024;12.970;2023-02-01T15:26:00;2.60;;;1.10;;
3571;SDS011;7958;53.024;12.970;2023-02-01T15:28:26;3.30;;;1.20;;
3571;SDS011;7958;53.024;12.970;2023-02-01T15:30:57;4.10;;;1.37;;
3571;SDS011;7958;53.024;12.970;2023-02-01T15:33:24;2.30;;;1.50;;
3571;SDS011;7958;53.024;12.970;2023-02-01T15:35:52;5.70;;;1.93;;
3571;SDS011;7958;53.024;12.970;2023-02-01T15:38:36;5.13;;;1.90;;
3571;SDS011;7958;53.024;12.970;2023-02-01T15:41:15;3.60;;;1.63;;
3571;SDS011;7958;53.024;12.970;2023-02-01T15:43:43;6.63;;;1.33;;
3571;SDS011;7958;53.024;12.970;2023-02-01T15:46:11;2.33;;;2.23;;
3571;SDS011;7958;53.024;12.970;2023-02-01T15:48:41;0.70;;;0.70;;
3571;SDS011;7958;53.024;12.970;2023-02-01T15:51:14;2.73;;;0.80;;
3571;SDS011;7958;53.024;12.970;2023-02-01T15:53:43;1.83;;;0.80;;
3571;SDS011;7958;53.024;12.970;2023-02-01T15:56:11;0.80;;;0.80;;
3571;SDS011;7958;53.024;12.970;2023-02-01T15:58:40;2.53;;;0.70;;
3571;SDS011;7958;53.024;12.970;2023-02-01T16:01:10;0.83;;;0.60;;